CSN3917 ZGGG-ZGGG
Flight info
| Callsign | CSN3917 |
|---|---|
| Flight time | 0h 9m |
| Altitude | 35100 |
| Route | ZGGG |
| Aircraft | A320/M-SDE2E3FGILRWXY/LB2 |
Departure
| Time | 2026-05-06 15:16 |
|---|---|
| Airport | Guangzhou Baiyun International Airport (ZGGG) |
Arrival
| Time | 2026-05-06 15:26 |
|---|---|
| Airport | Guangzhou Baiyun International Airport (ZGGG) |
| Time | Latitude | Longitude | Altitude | Speed | Heading |
|---|---|---|---|---|---|
| 2026-05-06 14:51 | 23.57800 | 113.94275 | 13786 ft | 417 kts | 98° |
| 2026-05-06 14:52 | 23.57031 | 113.97303 | 13791 ft | 414 kts | 117° |
| 2026-05-06 14:52 | 23.55448 | 113.99889 | 13715 ft | 410 kts | 135° |
| 2026-05-06 14:52 | 23.53239 | 114.01779 | 13463 ft | 401 kts | 155° |
| 2026-05-06 14:52 | 23.50635 | 114.02735 | 13404 ft | 393 kts | 175° |
| 2026-05-06 14:53 | 23.47932 | 114.02687 | 13405 ft | 387 kts | 194° |
| 2026-05-06 14:53 | 23.45403 | 114.01751 | 13409 ft | 384 kts | 205° |
| 2026-05-06 14:53 | 23.42957 | 114.00598 | 13402 ft | 384 kts | 206° |
| 2026-05-06 14:53 | 23.40460 | 113.99403 | 13128 ft | 401 kts | 206° |
| 2026-05-06 14:54 | 23.37893 | 113.98164 | 12752 ft | 405 kts | 206° |
| 2026-05-06 14:54 | 23.35321 | 113.96916 | 12382 ft | 404 kts | 206° |
| 2026-05-06 14:54 | 23.32793 | 113.95686 | 12015 ft | 403 kts | 206° |
| 2026-05-06 14:54 | 23.30237 | 113.94438 | 11653 ft | 401 kts | 206° |
| 2026-05-06 14:55 | 23.27698 | 113.93197 | 11287 ft | 399 kts | 206° |
| 2026-05-06 14:55 | 23.25162 | 113.91955 | 10941 ft | 398 kts | 206° |
| 2026-05-06 14:55 | 23.22648 | 113.90720 | 10585 ft | 396 kts | 206° |
| 2026-05-06 14:55 | 23.20153 | 113.89491 | 10246 ft | 389 kts | 206° |
| 2026-05-06 14:56 | 23.17769 | 113.88214 | 9910 ft | 375 kts | 215° |
| 2026-05-06 14:56 | 23.15989 | 113.86252 | 9539 ft | 360 kts | 240° |
| 2026-05-06 14:56 | 23.15218 | 113.83775 | 9163 ft | 346 kts | 265° |
| 2026-05-06 14:56 | 23.15555 | 113.81298 | 8788 ft | 325 kts | 293° |
| 2026-05-06 14:57 | 23.16866 | 113.79394 | 8419 ft | 310 kts | 318° |
| 2026-05-06 14:57 | 23.18616 | 113.78119 | 8058 ft | 296 kts | 328° |
| 2026-05-06 14:57 | 23.20288 | 113.76919 | 7691 ft | 281 kts | 319° |
| 2026-05-06 14:57 | 23.21700 | 113.75528 | 7335 ft | 268 kts | 314° |
| 2026-05-06 14:58 | 23.23087 | 113.74227 | 6997 ft | 259 kts | 322° |
| 2026-05-06 14:58 | 23.24605 | 113.73285 | 6918 ft | 249 kts | 335° |
| 2026-05-06 14:58 | 23.26273 | 113.72747 | 6918 ft | 252 kts | 348° |
| 2026-05-06 14:58 | 23.28030 | 113.72616 | 6920 ft | 255 kts | 1° |
| 2026-05-06 14:59 | 23.29765 | 113.72879 | 6919 ft | 256 kts | 12° |
| 2026-05-06 14:59 | 23.31469 | 113.73478 | 6921 ft | 258 kts | 19° |
| 2026-05-06 14:59 | 23.33125 | 113.74233 | 6919 ft | 258 kts | 22° |
| 2026-05-06 14:59 | 23.34762 | 113.75049 | 6919 ft | 259 kts | 23° |
| 2026-05-06 15:00 | 23.36388 | 113.75877 | 6920 ft | 257 kts | 23° |
| 2026-05-06 15:00 | 23.38007 | 113.76701 | 6924 ft | 257 kts | 23° |
| 2026-05-06 15:00 | 23.39631 | 113.77521 | 6920 ft | 257 kts | 23° |
| 2026-05-06 15:00 | 23.41250 | 113.78329 | 6926 ft | 255 kts | 23° |
| 2026-05-06 15:01 | 23.42796 | 113.79270 | 6927 ft | 255 kts | 33° |
| 2026-05-06 15:01 | 23.44164 | 113.80494 | 6918 ft | 256 kts | 44° |
| 2026-05-06 15:01 | 23.45275 | 113.81972 | 6925 ft | 256 kts | 57° |
| 2026-05-06 15:01 | 23.46104 | 113.83687 | 6920 ft | 257 kts | 69° |
| 2026-05-06 15:02 | 23.46601 | 113.85552 | 6924 ft | 256 kts | 81° |
| 2026-05-06 15:02 | 23.46749 | 113.87479 | 6924 ft | 255 kts | 92° |
| 2026-05-06 15:02 | 23.46548 | 113.89397 | 6922 ft | 255 kts | 104° |
| 2026-05-06 15:02 | 23.46018 | 113.91228 | 6922 ft | 253 kts | 115° |
| 2026-05-06 15:03 | 23.45179 | 113.92905 | 6922 ft | 252 kts | 127° |
| 2026-05-06 15:03 | 23.44067 | 113.94360 | 6923 ft | 250 kts | 138° |
| 2026-05-06 15:03 | 23.42726 | 113.95545 | 6921 ft | 247 kts | 150° |
| 2026-05-06 15:03 | 23.41239 | 113.96413 | 6923 ft | 245 kts | 160° |
| 2026-05-06 15:04 | 23.39619 | 113.96971 | 6919 ft | 243 kts | 171° |
| 2026-05-06 15:04 | 23.37949 | 113.97186 | 6919 ft | 241 kts | 182° |
| 2026-05-06 15:04 | 23.36282 | 113.97057 | 6918 ft | 239 kts | 192° |
| 2026-05-06 15:04 | 23.34678 | 113.96606 | 6921 ft | 238 kts | 201° |
| 2026-05-06 15:05 | 23.33139 | 113.95950 | 6922 ft | 237 kts | 205° |
| 2026-05-06 15:05 | 23.31634 | 113.95223 | 6919 ft | 236 kts | 206° |
| 2026-05-06 15:05 | 23.30140 | 113.94473 | 6919 ft | 237 kts | 207° |
| 2026-05-06 15:05 | 23.28665 | 113.93729 | 6920 ft | 237 kts | 206° |
| 2026-05-06 15:06 | 23.27173 | 113.92981 | 6918 ft | 236 kts | 206° |
| 2026-05-06 15:06 | 23.25679 | 113.92237 | 6919 ft | 236 kts | 206° |
| 2026-05-06 15:06 | 23.24182 | 113.91497 | 6919 ft | 236 kts | 207° |
| 2026-05-06 15:06 | 23.22862 | 113.90484 | 6918 ft | 233 kts | 232° |
| 2026-05-06 15:07 | 23.22162 | 113.88925 | 6913 ft | 232 kts | 260° |
| 2026-05-06 15:07 | 23.22237 | 113.87185 | 6912 ft | 234 kts | 287° |
| 2026-05-06 15:07 | 23.23087 | 113.85689 | 6918 ft | 237 kts | 316° |
| 2026-05-06 15:07 | 23.24526 | 113.84827 | 6919 ft | 241 kts | 346° |
| 2026-05-06 15:08 | 23.26203 | 113.84865 | 6919 ft | 247 kts | 17° |
| 2026-05-06 15:08 | 23.27771 | 113.85586 | 6921 ft | 249 kts | 23° |
| 2026-05-06 15:08 | 23.29353 | 113.86366 | 6922 ft | 250 kts | 22° |
| 2026-05-06 15:08 | 23.30936 | 113.87149 | 6919 ft | 250 kts | 23° |
| 2026-05-06 15:09 | 23.32516 | 113.87932 | 6916 ft | 250 kts | 25° |
| 2026-05-06 15:09 | 23.33867 | 113.89098 | 6914 ft | 251 kts | 55° |
| 2026-05-06 15:09 | 23.34470 | 113.90859 | 6922 ft | 251 kts | 88° |
| 2026-05-06 15:09 | 23.34147 | 113.92691 | 6922 ft | 248 kts | 121° |
| 2026-05-06 15:10 | 23.33025 | 113.94057 | 6919 ft | 243 kts | 151° |
| 2026-05-06 15:10 | 23.31479 | 113.94618 | 6918 ft | 238 kts | 181° |
| 2026-05-06 15:10 | 23.29859 | 113.94280 | 6918 ft | 234 kts | 205° |
| 2026-05-06 15:10 | 23.28386 | 113.93574 | 6919 ft | 235 kts | 206° |
| 2026-05-06 15:11 | 23.26896 | 113.92844 | 6916 ft | 235 kts | 206° |
| 2026-05-06 15:11 | 23.25406 | 113.92106 | 6915 ft | 235 kts | 206° |
| 2026-05-06 15:11 | 23.24004 | 113.91224 | 6912 ft | 232 kts | 226° |
| 2026-05-06 15:11 | 23.23171 | 113.89754 | 6920 ft | 231 kts | 251° |
| 2026-05-06 15:12 | 23.22722 | 113.88074 | 6915 ft | 232 kts | 256° |
| 2026-05-06 15:12 | 23.22331 | 113.86372 | 6832 ft | 234 kts | 256° |
| 2026-05-06 15:12 | 23.21950 | 113.84675 | 6787 ft | 230 kts | 256° |
| 2026-05-06 15:12 | 23.21576 | 113.83001 | 6788 ft | 231 kts | 256° |
| 2026-05-06 15:13 | 23.21192 | 113.81277 | 6789 ft | 232 kts | 256° |
| 2026-05-06 15:13 | 23.20819 | 113.79597 | 6789 ft | 232 kts | 256° |
| 2026-05-06 15:13 | 23.20440 | 113.77899 | 6791 ft | 231 kts | 256° |
| 2026-05-06 15:13 | 23.20063 | 113.76203 | 6792 ft | 231 kts | 256° |
| 2026-05-06 15:14 | 23.19686 | 113.74507 | 6708 ft | 233 kts | 256° |
| 2026-05-06 15:14 | 23.19319 | 113.72796 | 6428 ft | 231 kts | 256° |
| 2026-05-06 15:14 | 23.18962 | 113.71100 | 6131 ft | 229 kts | 256° |
| 2026-05-06 15:14 | 23.18612 | 113.69416 | 5834 ft | 228 kts | 256° |
| 2026-05-06 15:15 | 23.18272 | 113.67740 | 5583 ft | 226 kts | 256° |
| 2026-05-06 15:15 | 23.17939 | 113.66075 | 5394 ft | 225 kts | 256° |
| 2026-05-06 15:15 | 23.17611 | 113.64411 | 5202 ft | 225 kts | 256° |
| 2026-05-06 15:15 | 23.17288 | 113.62750 | 5007 ft | 225 kts | 256° |
| 2026-05-06 15:16 | 23.16969 | 113.61091 | 4814 ft | 224 kts | 256° |
| 2026-05-06 15:16 | 23.16657 | 113.59451 | 4624 ft | 224 kts | 256° |
| 2026-05-06 15:16 | 23.16344 | 113.57789 | 4437 ft | 224 kts | 256° |
| 2026-05-06 15:16 | 23.16029 | 113.56127 | 4229 ft | 225 kts | 256° |
| 2026-05-06 15:17 | 23.15712 | 113.54458 | 4031 ft | 226 kts | 256° |
| 2026-05-06 15:17 | 23.15394 | 113.52790 | 3830 ft | 225 kts | 256° |
| 2026-05-06 15:17 | 23.15078 | 113.51123 | 3635 ft | 225 kts | 256° |
| 2026-05-06 15:17 | 23.14761 | 113.49456 | 3441 ft | 225 kts | 256° |
| 2026-05-06 15:18 | 23.14446 | 113.47795 | 3249 ft | 225 kts | 256° |
| 2026-05-06 15:18 | 23.14130 | 113.46133 | 3094 ft | 224 kts | 256° |
| 2026-05-06 15:18 | 23.13818 | 113.44496 | 3007 ft | 224 kts | 256° |
| 2026-05-06 15:18 | 23.13502 | 113.42838 | 3012 ft | 225 kts | 256° |
| 2026-05-06 15:19 | 23.13196 | 113.41171 | 3007 ft | 225 kts | 258° |
| 2026-05-06 15:19 | 23.13296 | 113.39474 | 3011 ft | 229 kts | 282° |
| 2026-05-06 15:19 | 23.13744 | 113.37835 | 3009 ft | 223 kts | 285° |
| 2026-05-06 15:19 | 23.14229 | 113.36251 | 3005 ft | 219 kts | 286° |
| 2026-05-06 15:20 | 23.14716 | 113.34689 | 3007 ft | 218 kts | 286° |
| 2026-05-06 15:20 | 23.15203 | 113.33133 | 3008 ft | 217 kts | 286° |
| 2026-05-06 15:20 | 23.15692 | 113.31579 | 3006 ft | 217 kts | 286° |
| 2026-05-06 15:20 | 23.16180 | 113.30025 | 3010 ft | 217 kts | 286° |
| 2026-05-06 15:21 | 23.16680 | 113.28473 | 3008 ft | 218 kts | 291° |
| 2026-05-06 15:21 | 23.17626 | 113.27193 | 3005 ft | 222 kts | 325° |
| 2026-05-06 15:21 | 23.19003 | 113.26493 | 3013 ft | 223 kts | 346° |
| 2026-05-06 15:21 | 23.20537 | 113.26374 | 3009 ft | 218 kts | 9° |
| 2026-05-06 15:22 | 23.21978 | 113.26724 | 2915 ft | 210 kts | 15° |
| 2026-05-06 15:22 | 23.23381 | 113.27105 | 2689 ft | 206 kts | 15° |
| 2026-05-06 15:22 | 23.24768 | 113.27480 | 2434 ft | 205 kts | 15° |
| 2026-05-06 15:22 | 23.26132 | 113.27848 | 2191 ft | 197 kts | 15° |
| 2026-05-06 15:23 | 23.27434 | 113.28198 | 1929 ft | 189 kts | 15° |
| 2026-05-06 15:23 | 23.28684 | 113.28535 | 1677 ft | 182 kts | 15° |
| 2026-05-06 15:23 | 23.29899 | 113.28863 | 1450 ft | 177 kts | 15° |
| 2026-05-06 15:23 | 23.31041 | 113.29171 | 1229 ft | 162 kts | 15° |
| 2026-05-06 15:24 | 23.32093 | 113.29455 | 1025 ft | 154 kts | 15° |
| 2026-05-06 15:24 | 23.33111 | 113.29730 | 834 ft | 148 kts | 14° |
| 2026-05-06 15:24 | 23.34097 | 113.29996 | 658 ft | 144 kts | 14° |
| 2026-05-06 15:24 | 23.35064 | 113.30259 | 464 ft | 142 kts | 14° |
| 2026-05-06 15:25 | 23.36018 | 113.30514 | 295 ft | 141 kts | 14° |
| 2026-05-06 15:25 | 23.36963 | 113.30765 | 120 ft | 139 kts | 14° |
| 2026-05-06 15:25 | 23.37861 | 113.31001 | 55 ft | 120 kts | 14° |
| 2026-05-06 15:25 | 23.38509 | 113.31189 | 56 ft | 72 kts | 14° |
| 2026-05-06 15:26 | 23.38826 | 113.31276 | 52 ft | 22 kts | 14° |
| 2026-05-06 15:26 | 23.38968 | 113.31301 | 52 ft | 22 kts | 354° |
| 2026-05-06 15:26 | 23.39116 | 113.31274 | 56 ft | 20 kts | 347° |
| 2026-05-06 15:26 | 23.39195 | 113.31252 | 55 ft | 0 kts | 346° |
| 2026-05-06 15:27 | 23.39229 | 113.31243 | 56 ft | 14 kts | 346° |
| 2026-05-06 15:27 | 23.39326 | 113.31221 | 56 ft | 14 kts | 355° |
| 2026-05-06 15:28 | 23.39426 | 113.31237 | 56 ft | 15 kts | 13° |
| 2026-05-06 15:28 | 23.39536 | 113.31267 | 55 ft | 17 kts | 14° |
| 2026-05-06 15:28 | 23.39658 | 113.31300 | 53 ft | 19 kts | 13° |
| 2026-05-06 15:28 | 23.39792 | 113.31336 | 56 ft | 21 kts | 13° |
| 2026-05-06 15:29 | 23.39939 | 113.31376 | 55 ft | 23 kts | 14° |
| 2026-05-06 15:29 | 23.40074 | 113.31412 | 57 ft | 19 kts | 14° |
| 2026-05-06 15:29 | 23.40199 | 113.31446 | 55 ft | 12 kts | 14° |
| 2026-05-06 15:29 | 23.40277 | 113.31468 | 53 ft | 9 kts | 14° |
| 2026-05-06 15:30 | 23.40322 | 113.31451 | 52 ft | 6 kts | 305° |
| 2026-05-06 15:30 | 23.40332 | 113.31409 | 53 ft | 5 kts | 282° |
| 2026-05-06 15:30 | 23.40345 | 113.31350 | 57 ft | 15 kts | 284° |
| 2026-05-06 15:30 | 23.40374 | 113.31226 | 57 ft | 14 kts | 284° |
| 2026-05-06 15:31 | 23.40378 | 113.31207 | 56 ft | 0 kts | 284° |
| 2026-05-06 15:32 | 23.40391 | 113.31151 | 52 ft | 5 kts | 284° |
| 2026-05-06 15:32 | 23.40407 | 113.31082 | 53 ft | 11 kts | 284° |
| 2026-05-06 15:32 | 23.40424 | 113.31004 | 58 ft | 10 kts | 283° |
| 2026-05-06 15:32 | 23.40440 | 113.30936 | 58 ft | 9 kts | 284° |
| 2026-05-06 15:33 | 23.40454 | 113.30875 | 58 ft | 10 kts | 284° |
| 2026-05-06 15:33 | 23.40473 | 113.30790 | 58 ft | 12 kts | 283° |
| 2026-05-06 15:33 | 23.40491 | 113.30710 | 51 ft | 10 kts | 284° |
| 2026-05-06 15:33 | 23.40507 | 113.30641 | 52 ft | 9 kts | 284° |
| 2026-05-06 15:34 | 23.40521 | 113.30581 | 54 ft | 8 kts | 283° |
| 2026-05-06 15:34 | 23.40531 | 113.30530 | 58 ft | 6 kts | 276° |
| 2026-05-06 15:34 | 23.40512 | 113.30496 | 52 ft | 5 kts | 218° |
| 2026-05-06 15:34 | 23.40466 | 113.30479 | 53 ft | 7 kts | 199° |
| 2026-05-06 15:35 | 23.40422 | 113.30440 | 52 ft | 8 kts | 227° |
| 2026-05-06 15:35 | 23.40384 | 113.30397 | 56 ft | 7 kts | 225° |
| 2026-05-06 15:35 | 23.40352 | 113.30361 | 55 ft | 6 kts | 225° |
| 2026-05-06 15:35 | 23.40322 | 113.30328 | 57 ft | 6 kts | 226° |
| 2026-05-06 15:36 | 23.40306 | 113.30293 | 58 ft | 5 kts | 259° |
| 2026-05-06 15:36 | 23.40297 | 113.30273 | 54 ft | 4 kts | 236° |
| 2026-05-06 15:36 | 23.40268 | 113.30256 | 56 ft | 6 kts | 195° |
| 2026-05-06 15:36 | 23.40230 | 113.30246 | 57 ft | 5 kts | 194° |
| 2026-05-06 15:37 | 23.40199 | 113.30237 | 54 ft | 4 kts | 194° |
| 2026-05-06 15:37 | 23.40166 | 113.30229 | 54 ft | 3 kts | 194° |
| 2026-05-06 15:37 | 23.40158 | 113.30226 | 56 ft | 2 kts | 194° |